Barhom II — 5IM534 — position and weather

sailwx.info

Track history (hours):
 
Tides and Currents Weather Stations Pressure Air Temp Water Temp Dewpoint Dewpoint Depression Visibility Wind Speed Wind Dir Waves Ship Positions

Barhom II

Last reported at 2017-Dec-09 15:15 UTC. Time now 2017-Dec-13 05:17 UTC.
Position N 37°33' W 000°59'.

Length 83 m.

Type: Cargo ship. MMSI: 677043400.

Date/timePositionNaut miles runAvg speedWind from/ knotsBaromVisibWave heightAir tempDewpointWater temp
2017-Dec-09 15:15N 37°33' W 000°59'2 8.4
2017-Dec-09 15:00N 37°32' W 000°57'510.2
2017-Dec-09 14:31N 37°30' W 000°51'510.5
2017-Dec-09 14:00N 37°28' W 000°45'910.8
2017-Dec-09 13:10N 37°26' W 000°34'210.8
2017-Dec-09 13:01N 37°26' W 000°32'611.0
2017-Dec-09 12:27N 37°27' W 000°24'  
2017-Dec-01 15:57N 39°17' E 003°28'610.9
2017-Dec-01 15:27N 39°23' E 003°30'  
Track history (hours):
 
Tides and Currents Weather Stations Pressure Air Temp Water Temp Dewpoint Dewpoint Depression Visibility Wind Speed Wind Dir Waves Ship Positions

Barhom II

Last reported at 2017-Dec-09 15:15 UTC. Time now 2017-Dec-13 05:17 UTC.
Position N 37°33' W 000°59'.

Length 83 m.

Type: Cargo ship. MMSI: 677043400.

Date/timePositionNaut miles runAvg speedWind from/ knotsBaromVisibWave heightAir tempDewpointWater temp
2017-Dec-09 15:15N 37°33' W 000°59'2 8.4
2017-Dec-09 15:00N 37°32' W 000°57'510.2
2017-Dec-09 14:31N 37°30' W 000°51'510.5
2017-Dec-09 14:00N 37°28' W 000°45'910.8
2017-Dec-09 13:10N 37°26' W 000°34'210.8
2017-Dec-09 13:01N 37°26' W 000°32'611.0
2017-Dec-09 12:27N 37°27' W 000°24'  
2017-Dec-01 15:57N 39°17' E 003°28'610.9
2017-Dec-01 15:27N 39°23' E 003°30'  

Dump ship's entire track history